Time;durP1;ratioP1;P1;durP2;ratioP2;P2;SDS_P1;SDS_P2;PMS_P1;PMS_P2;Temp;Humidity;BMP_temperature;BMP_pressure;BME280_temperature;BME280_humidity;BME280_pressure;Samples;Min_cycle;Max_cycle;Signal;HPM_P1;HPM_P2
2022/01/24 00:02:00;;;;;;;;;;;;;;;;;;5095400;28;817;-74
2022/01/24 00:04:25;;;;;;;;;;;;;;;;;;5095063;28;813;-74
2022/01/24 00:06:51;;;;;;;;;;;;;;;;;;5082737;28;2585;-73
2022/01/24 00:09:16;;;;;;;;;;;;;;;;;;5055870;28;1097;-74
2022/01/24 00:11:57;;;;;;;;;;;;;;;;;;5092490;28;833;-73
2022/01/24 00:27:43;;;;;;;;;;;;;;;;;;5094221;28;1347;-73
2022/01/24 00:30:08;;;;;;;;;;;;;;;;;;5094310;28;820;-74
2022/01/24 00:32:33;;;;;;;;;;;;;;;;;;5093358;28;848;-74
2022/01/24 00:34:59;;;;;;;;;;;;;;;;;;5093706;28;1913;-74
2022/01/24 00:37:25;;;;;;;;;;;;;;;;;;5093236;28;821;-74
2022/01/24 00:39:50;;;;;;;;;;;;;;;;;;5093703;28;854;-73
2022/01/24 00:47:29;;;;;;;;;;;;;;;;;;5094249;28;935;-74
2022/01/24 00:55:19;;;;;;;;;;;;;;;;;;5093859;28;1918;-74
2022/01/24 00:57:44;;;;;;;;;;;;;;;;;;5093253;28;991;-74
2022/01/24 01:00:10;;;;;;;;;;;;;;;;;;5075581;28;817;-73
2022/01/24 01:02:35;;;;;;;;;;;;;;;;;;5093389;28;801;-73
2022/01/24 01:07:50;;;;;;;;;;;;;;;;;;5093428;28;886;-73
2022/01/24 01:18:27;;;;;;;;;;;;;;;;;;5093007;28;763;-72
2022/01/24 01:21:10;;;;;;;;;;;;;;;;;;5074864;28;1222;-72
2022/01/24 01:23:39;;;;;;;;;;;;;;;;;;5077182;28;892;-73
2022/01/24 01:26:09;;;;;;;;;;;;;;;;;;5074837;28;1025;-71
2022/01/24 01:28:36;;;;;;;;;;;;;;;;;;5092132;28;1200;-73
2022/01/24 01:31:07;;;;;;;;;;;;;;;;;;5092932;28;935;-74
2022/01/24 01:37:02;;;;;;;;;;;;;;;;;;5092658;28;751;-72
2022/01/24 01:55:39;;;;;;;;;;;;;;;;;;5097502;28;2598;-72
2022/01/24 01:58:05;;;;;;;;;;;;;;;;;;5099499;28;907;-72
2022/01/24 02:00:30;;;;;;;;;;;;;;;;;;5099622;28;919;-72
2022/01/24 02:02:56;;;;;;;;;;;;;;;;;;5099367;28;879;-72
2022/01/24 02:05:22;;;;;;;;;;;;;;;;;;5099975;28;856;-73
2022/01/24 02:07:48;;;;;;;;;;;;;;;;;;5081573;28;1279;-72
2022/01/24 02:10:14;;;;;;;;;;;;;;;;;;5099709;28;917;-73
2022/01/24 02:12:39;;;;;;;;;;;;;;;;;;5081037;28;880;-72
2022/01/24 02:15:05;;;;;;;;;;;;;;;;;;5100537;28;1898;-72
2022/01/24 02:17:55;;;;;;;;;;;;;;;;;;5081765;28;1163;-73
2022/01/24 02:25:51;;;;;;;;;;;;;;;;;;5100562;28;1042;-72
2022/01/24 02:28:19;;;;;;;;;;;;;;;;;;5096001;28;1486;-72
2022/01/24 02:33:32;;;;;;;;;;;;;;;;;;5092163;28;1918;-72
2022/01/24 02:35:57;;;;;;;;;;;;;;;;;;5092901;28;875;-72
2022/01/24 02:39:10;;;;;;;;;;;;;;;;;;5097263;28;1162;-72
2022/01/24 02:49:26;;;;;;;;;;;;;;;;;;5079367;28;746;-77
2022/01/24 02:51:53;;;;;;;;;;;;;;;;;;5078911;28;1000;-77
2022/01/24 02:54:24;;;;;;;;;;;;;;;;;;5096715;28;1910;-76
2022/01/24 02:56:49;;;;;;;;;;;;;;;;;;5078412;28;914;-77
2022/01/24 02:59:14;;;;;;;;;;;;;;;;;;5096526;28;832;-77
2022/01/24 03:01:40;;;;;;;;;;;;;;;;;;5095747;28;909;-76
2022/01/24 03:04:06;;;;;;;;;;;;;;;;;;5096310;28;982;-77
2022/01/24 03:06:31;;;;;;;;;;;;;;;;;;5096236;28;963;-77
2022/01/24 03:08:56;;;;;;;;;;;;;;;;;;5095868;28;911;-76
2022/01/24 03:11:27;;;;;;;;;;;;;;;;;;5078150;28;852;-77
2022/01/24 03:13:52;;;;;;;;;;;;;;;;;;5096066;28;1970;-76
2022/01/24 03:16:17;;;;;;;;;;;;;;;;;;5096009;28;932;-77
2022/01/24 03:18:43;;;;;;;;;;;;;;;;;;5095339;28;927;-77
2022/01/24 03:21:08;;;;;;;;;;;;;;;;;;5095466;28;958;-77
2022/01/24 03:23:33;;;;;;;;;;;;;;;;;;5095060;28;963;-77
2022/01/24 03:25:59;;;;;;;;;;;;;;;;;;5095681;28;1620;-73
2022/01/24 03:28:24;;;;;;;;;;;;;;;;;;5083750;28;1316;-73
2022/01/24 03:30:49;;;;;;;;;;;;;;;;;;5074862;28;920;-73
2022/01/24 03:33:15;;;;;;;;;;;;;;;;;;5075504;28;915;-73
2022/01/24 03:35:40;;;;;;;;;;;;;;;;;;5074345;28;1910;-72
2022/01/24 03:38:06;;;;;;;;;;;;;;;;;;5074649;28;884;-73
2022/01/24 03:40:31;;;;;;;;;;;;;;;;;;5075084;28;908;-72
2022/01/24 03:42:56;;;;;;;;;;;;;;;;;;5056594;28;2372;-73
2022/01/24 03:45:37;;;;;;;;;;;;;;;;;;5074915;28;837;-73
2022/01/24 03:48:10;;;;;;;;;;;;;;;;;;5074764;28;864;-72
2022/01/24 03:50:35;;;;;;;;;;;;;;;;;;5074039;28;873;-72
2022/01/24 03:53:00;;;;;;;;;;;;;;;;;;5075410;28;778;-77
2022/01/24 03:55:26;;;;;;;;;;;;;;;;;;5074597;28;1906;-77
2022/01/24 03:57:51;;;;;;;;;;;;;;;;;;5075270;28;781;-77
2022/01/24 04:00:17;;;;;;;;;;;;;;;;;;5074096;28;852;-76
2022/01/24 04:02:42;;;;;;;;;;;;;;;;;;5074204;28;920;-77
2022/01/24 04:05:08;;;;;;;;;;;;;;;;;;5074730;28;746;-77
2022/01/24 04:07:34;;;;;;;;;;;;;;;;;;5056152;28;869;-76
2022/01/24 04:10:05;;;;;;;;;;;;;;;;;;5056677;28;920;-76
2022/01/24 04:12:31;;;;;;;;;;;;;;;;;;5074125;28;867;-76
2022/01/24 04:15:10;;;;;;;;;;;;;;;;;;5074615;28;1906;-77
2022/01/24 04:17:45;;;;;;;;;;;;;;;;;;5073608;28;944;-77
2022/01/24 04:22:57;;;;;;;;;;;;;;;;;;5075083;28;817;-77
2022/01/24 04:25:24;;;;;;;;;;;;;;;;;;5074804;28;1153;-77
2022/01/24 04:27:51;;;;;;;;;;;;;;;;;;5080793;28;1203;-77
2022/01/24 04:30:16;;;;;;;;;;;;;;;;;;5096088;28;821;-76
2022/01/24 04:32:42;;;;;;;;;;;;;;;;;;5094342;28;856;-72
2022/01/24 04:35:07;;;;;;;;;;;;;;;;;;5093998;28;1971;-73
2022/01/24 04:37:33;;;;;;;;;;;;;;;;;;5094065;28;919;-73
2022/01/24 04:39:58;;;;;;;;;;;;;;;;;;5093983;28;1064;-73
2022/01/24 04:42:35;;;;;;;;;;;;;;;;;;5094227;28;805;-72
2022/01/24 04:53:05;;;;;;;;;;;;;;;;;;5093697;28;1026;-72
2022/01/24 04:55:30;;;;;;;;;;;;;;;;;;5093373;28;1910;-72
2022/01/24 04:57:56;;;;;;;;;;;;;;;;;;5093259;28;841;-73
2022/01/24 05:00:21;;;;;;;;;;;;;;;;;;5093745;28;809;-73
2022/01/24 05:02:46;;;;;;;;;;;;;;;;;;5092863;28;908;-72
2022/01/24 05:05:17;;;;;;;;;;;;;;;;;;5093096;28;801;-73
2022/01/24 05:07:42;;;;;;;;;;;;;;;;;;5092654;28;876;-73
2022/01/24 05:26:15;;;;;;;;;;;;;;;;;;5066393;28;1463;-73
2022/01/24 05:28:40;;;;;;;;;;;;;;;;;;5074386;28;1052;-72
2022/01/24 05:31:06;;;;;;;;;;;;;;;;;;5073299;28;2623;-73
2022/01/24 05:33:32;;;;;;;;;;;;;;;;;;5092601;28;1909;-72
2022/01/24 05:35:57;;;;;;;;;;;;;;;;;;5074440;28;1458;-73
2022/01/24 05:38:22;;;;;;;;;;;;;;;;;;5074363;28;861;-72
2022/01/24 05:40:48;;;;;;;;;;;;;;;;;;5073944;28;862;-72
2022/01/24 05:43:14;;;;;;;;;;;;;;;;;;5092506;28;1132;-73
2022/01/24 05:45:41;;;;;;;;;;;;;;;;;;5092685;28;888;-72
2022/01/24 05:48:06;;;;;;;;;;;;;;;;;;5092393;28;963;-73
2022/01/24 05:50:32;;;;;;;;;;;;;;;;;;5092489;28;899;-72
2022/01/24 05:52:58;;;;;;;;;;;;;;;;;;5092035;28;1193;-73
2022/01/24 05:55:24;;;;;;;;;;;;;;;;;;5074484;28;1997;-72
2022/01/24 05:57:52;;;;;;;;;;;;;;;;;;5092259;28;899;-73
2022/01/24 06:00:17;;;;;;;;;;;;;;;;;;5092435;28;836;-72
2022/01/24 06:02:43;;;;;;;;;;;;;;;;;;5073492;28;1115;-72
2022/01/24 06:05:08;;;;;;;;;;;;;;;;;;5074175;28;899;-72
2022/01/24 06:07:34;;;;;;;;;;;;;;;;;;5092125;28;988;-73
2022/01/24 06:10:00;;;;;;;;;;;;;;;;;;5092386;28;840;-72
2022/01/24 06:12:26;;;;;;;;;;;;;;;;;;5091994;28;1208;-73
2022/01/24 06:14:51;;;;;;;;;;;;;;;;;;5092360;28;1914;-73
2022/01/24 06:17:17;;;;;;;;;;;;;;;;;;5093017;28;828;-73
2022/01/24 06:19:42;;;;;;;;;;;;;;;;;;5091867;28;830;-73
2022/01/24 06:22:08;;;;;;;;;;;;;;;;;;5091828;28;860;-72
2022/01/24 06:24:33;;;;;;;;;;;;;;;;;;5091189;28;1021;-73
2022/01/24 06:26:58;;;;;;;;;;;;;;;;;;5073602;28;1369;-73
2022/01/24 06:29:24;;;;;;;;;;;;;;;;;;5073489;28;1528;-76
2022/01/24 06:31:49;;;;;;;;;;;;;;;;;;5091729;28;981;-76
2022/01/24 06:34:14;;;;;;;;;;;;;;;;;;5074290;28;2031;-76
2022/01/24 06:36:40;;;;;;;;;;;;;;;;;;5091518;28;1241;-73
2022/01/24 06:39:06;;;;;;;;;;;;;;;;;;5073008;28;999;-73
2022/01/24 06:41:34;;;;;;;;;;;;;;;;;;5073443;28;881;-73
2022/01/24 06:44:00;;;;;;;;;;;;;;;;;;5090675;28;844;-73
2022/01/24 06:46:26;;;;;;;;;;;;;;;;;;5091811;28;852;-73
2022/01/24 06:48:51;;;;;;;;;;;;;;;;;;5091379;28;888;-73
2022/01/24 06:51:20;;;;;;;;;;;;;;;;;;5091868;28;817;-73
2022/01/24 06:53:46;;;;;;;;;;;;;;;;;;5091395;28;1973;-73
2022/01/24 06:56:12;;;;;;;;;;;;;;;;;;5091616;28;860;-72
2022/01/24 06:58:37;;;;;;;;;;;;;;;;;;5090643;28;2181;-72
2022/01/24 07:01:03;;;;;;;;;;;;;;;;;;5090386;28;1202;-73
2022/01/24 07:03:28;;;;;;;;;;;;;;;;;;5072340;28;923;-73
2022/01/24 07:05:54;;;;;;;;;;;;;;;;;;5090966;28;888;-73
2022/01/24 07:08:19;;;;;;;;;;;;;;;;;;5091537;28;1002;-73
2022/01/24 07:10:45;;;;;;;;;;;;;;;;;;5091084;28;903;-73
2022/01/24 07:13:10;;;;;;;;;;;;;;;;;;5073172;28;955;-73
2022/01/24 07:15:47;;;;;;;;;;;;;;;;;;5091077;28;1910;-73
2022/01/24 07:20:56;;;;;;;;;;;;;;;;;;5090995;28;899;-73
2022/01/24 07:23:21;;;;;;;;;;;;;;;;;;5091046;28;849;-72
2022/01/24 07:25:47;;;;;;;;;;;;;;;;;;5091368;28;980;-73
2022/01/24 07:28:12;;;;;;;;;;;;;;;;;;5091074;28;1422;-73
2022/01/24 07:30:38;;;;;;;;;;;;;;;;;;5091200;28;885;-73
2022/01/24 07:33:03;;;;;;;;;;;;;;;;;;5072817;28;1159;-74
2022/01/24 07:35:29;;;;;;;;;;;;;;;;;;5091635;28;1902;-73
2022/01/24 07:37:54;;;;;;;;;;;;;;;;;;5093922;28;858;-73
2022/01/24 07:40:21;;;;;;;;;;;;;;;;;;5094727;28;856;-73
2022/01/24 07:42:56;;;;;;;;;;;;;;;;;;5094546;28;896;-73
2022/01/24 07:45:25;;;;;;;;;;;;;;;;;;5095006;28;892;-73
2022/01/24 07:47:51;;;;;;;;;;;;;;;;;;5094231;28;810;-72
2022/01/24 07:50:19;;;;;;;;;;;;;;;;;;5077173;28;908;-72
2022/01/24 07:52:44;;;;;;;;;;;;;;;;;;5095358;28;943;-73
2022/01/24 07:55:10;;;;;;;;;;;;;;;;;;5076390;28;1981;-72
2022/01/24 07:57:35;;;;;;;;;;;;;;;;;;5076734;28;920;-72
2022/01/24 08:00:00;;;;;;;;;;;;;;;;;;5094257;28;857;-72
2022/01/24 08:02:26;;;;;;;;;;;;;;;;;;5094807;28;858;-73
2022/01/24 08:04:51;;;;;;;;;;;;;;;;;;5077068;28;899;-73
2022/01/24 08:07:16;;;;;;;;;;;;;;;;;;5094381;28;904;-73
2022/01/24 08:09:41;;;;;;;;;;;;;;;;;;5094485;28;813;-73
2022/01/24 08:12:07;;;;;;;;;;;;;;;;;;5094328;28;911;-73
2022/01/24 08:14:32;;;;;;;;;;;;;;;;;;5094284;28;1901;-73
2022/01/24 08:16:59;;;;;;;;;;;;;;;;;;5076183;28;724;-73
2022/01/24 08:19:24;;;;;;;;;;;;;;;;;;5095097;28;882;-73
2022/01/24 08:21:50;;;;;;;;;;;;;;;;;;5076230;28;1167;-73
2022/01/24 08:24:15;;;;;;;;;;;;;;;;;;5094013;28;853;-73
2022/01/24 08:26:40;;;;;;;;;;;;;;;;;;5095121;28;954;-73
2022/01/24 08:29:06;;;;;;;;;;;;;;;;;;5093578;28;1229;-73
2022/01/24 08:31:31;;;;;;;;;;;;;;;;;;5076355;28;854;-73
2022/01/24 08:33:56;;;;;;;;;;;;;;;;;;5093859;28;1883;-73
2022/01/24 08:36:22;;;;;;;;;;;;;;;;;;5095134;28;884;-72
2022/01/24 08:38:50;;;;;;;;;;;;;;;;;;5075722;28;927;-72
2022/01/24 08:41:23;;;;;;;;;;;;;;;;;;5075278;28;1362;-73
2022/01/24 08:46:14;;;;;;;;;;;;;;;;;;5094198;28;718;-73
2022/01/24 08:48:39;;;;;;;;;;;;;;;;;;5093714;28;990;-73
2022/01/24 08:51:05;;;;;;;;;;;;;;;;;;5093762;28;837;-74
2022/01/24 08:53:31;;;;;;;;;;;;;;;;;;5094348;28;1886;-73
2022/01/24 08:55:58;;;;;;;;;;;;;;;;;;5075163;28;1424;-73
2022/01/24 08:58:24;;;;;;;;;;;;;;;;;;5094781;28;868;-73
2022/01/24 09:00:50;;;;;;;;;;;;;;;;;;5093691;28;910;-73
2022/01/24 09:03:15;;;;;;;;;;;;;;;;;;5093721;28;884;-73
2022/01/24 09:05:41;;;;;;;;;;;;;;;;;;5093468;28;895;-73
2022/01/24 09:08:07;;;;;;;;;;;;;;;;;;5091609;28;2604;-73
2022/01/24 09:10:34;;;;;;;;;;;;;;;;;;5094660;28;825;-73
2022/01/24 09:12:59;;;;;;;;;;;;;;;;;;5093867;28;983;-73
2022/01/24 09:15:24;;;;;;;;;;;;;;;;;;5093337;28;1910;-73
2022/01/24 09:17:49;;;;;;;;;;;;;;;;;;5075428;28;933;-73
2022/01/24 09:20:15;;;;;;;;;;;;;;;;;;5076994;28;824;-73
2022/01/24 09:22:41;;;;;;;;;;;;;;;;;;5092915;28;875;-73
2022/01/24 09:25:06;;;;;;;;;;;;;;;;;;5093762;28;901;-76
2022/01/24 09:27:32;;;;;;;;;;;;;;;;;;5094569;28;853;-75
2022/01/24 09:29:57;;;;;;;;;;;;;;;;;;5093306;28;1145;-76
2022/01/24 09:32:23;;;;;;;;;;;;;;;;;;5093214;28;891;-77
2022/01/24 09:34:49;;;;;;;;;;;;;;;;;;5091910;28;1922;-73
2022/01/24 09:37:14;;;;;;;;;;;;;;;;;;5093532;28;952;-73
2022/01/24 09:39:39;;;;;;;;;;;;;;;;;;5092789;28;817;-74
2022/01/24 09:42:05;;;;;;;;;;;;;;;;;;5076918;28;1559;-74
2022/01/24 09:44:32;;;;;;;;;;;;;;;;;;5073566;28;1145;-77
2022/01/24 09:46:57;;;;;;;;;;;;;;;;;;5073722;28;1003;-73
2022/01/24 09:49:22;;;;;;;;;;;;;;;;;;5073383;28;983;-74
2022/01/24 09:51:50;;;;;;;;;;;;;;;;;;5073074;28;822;-74
2022/01/24 09:54:15;;;;;;;;;;;;;;;;;;5073106;28;1956;-73
2022/01/24 09:56:40;;;;;;;;;;;;;;;;;;5072213;28;999;-73
2022/01/24 09:59:06;;;;;;;;;;;;;;;;;;5053314;28;1072;-74
2022/01/24 10:01:33;;;;;;;;;;;;;;;;;;5072652;28;920;-73
2022/01/24 10:04:17;;;;;;;;;;;;;;;;;;5073046;28;872;-73
2022/01/24 10:07:01;;;;;;;;;;;;;;;;;;5072887;28;955;-73
2022/01/24 10:09:47;;;;;;;;;;;;;;;;;;5072577;28;798;-73
2022/01/24 10:12:19;;;;;;;;;;;;;;;;;;5054068;28;1626;-74
2022/01/24 10:17:30;;;;;;;;;;;;;;;;;;5073070;28;703;-72
2022/01/24 10:19:56;;;;;;;;;;;;;;;;;;5055024;28;900;-73
2022/01/24 10:22:23;;;;;;;;;;;;;;;;;;5054868;28;1187;-72
2022/01/24 10:24:51;;;;;;;;;;;;;;;;;;5053980;28;1152;-75
2022/01/24 10:27:28;;;;;;;;;;;;;;;;;;5072910;28;861;-75
2022/01/24 10:29:53;;;;;;;;;;;;;;;;;;5091729;28;1153;-73
2022/01/24 10:32:28;;;;;;;;;;;;;;;;;;5092915;28;875;-73
2022/01/24 10:34:56;;;;;;;;;;;;;;;;;;5092729;28;1914;-74
2022/01/24 10:37:23;;;;;;;;;;;;;;;;;;5092595;28;844;-72
2022/01/24 10:39:58;;;;;;;;;;;;;;;;;;5092634;28;785;-72
2022/01/24 10:44:56;;;;;;;;;;;;;;;;;;5092539;28;793;-72
2022/01/24 10:47:24;;;;;;;;;;;;;;;;;;5092032;28;955;-73
2022/01/24 10:49:50;;;;;;;;;;;;;;;;;;5092548;28;907;-72
2022/01/24 10:52:20;;;;;;;;;;;;;;;;;;5092859;28;872;-73
2022/01/24 10:54:49;;;;;;;;;;;;;;;;;;5090835;28;2080;-73
2022/01/24 10:57:25;;;;;;;;;;;;;;;;;;5092909;28;837;-73
2022/01/24 10:59:51;;;;;;;;;;;;;;;;;;5093095;28;793;-74
2022/01/24 11:02:17;;;;;;;;;;;;;;;;;;5093868;28;836;-75
2022/01/24 11:04:42;;;;;;;;;;;;;;;;;;5094028;28;848;-72
2022/01/24 11:07:07;;;;;;;;;;;;;;;;;;5108311;28;886;-74
2022/01/24 11:09:34;;;;;;;;;;;;;;;;;;5108135;28;939;-75
2022/01/24 11:12:01;;;;;;;;;;;;;;;;;;5111901;28;990;-75
2022/01/24 11:14:27;;;;;;;;;;;;;;;;;;5110029;28;1890;-74
2022/01/24 11:16:53;;;;;;;;;;;;;;;;;;5077771;28;1275;-74
2022/01/24 11:19:29;;;;;;;;;;;;;;;;;;5096117;28;867;-74
2022/01/24 11:21:56;;;;;;;;;;;;;;;;;;5095729;28;900;-74
2022/01/24 11:24:28;;;;;;;;;;;;;;;;;;5095851;28;892;-74
2022/01/24 11:26:54;;;;;;;;;;;;;;;;;;5095398;28;890;-75
2022/01/24 11:29:19;;;;;;;;;;;;;;;;;;5060755;28;1479;-74
2022/01/24 11:31:56;;;;;;;;;;;;;;;;;;5095785;28;904;-74
2022/01/24 11:34:30;;;;;;;;;;;;;;;;;;5095888;28;1978;-75
2022/01/24 11:36:56;;;;;;;;;;;;;;;;;;5095011;28;840;-74
2022/01/24 11:39:22;;;;;;;;;;;;;;;;;;5095213;28;939;-75
2022/01/24 11:41:48;;;;;;;;;;;;;;;;;;5095250;28;813;-74
2022/01/24 11:44:16;;;;;;;;;;;;;;;;;;5095147;28;853;-75
2022/01/24 11:49:13;;;;;;;;;;;;;;;;;;5093732;28;2964;-75
2022/01/24 11:51:40;;;;;;;;;;;;;;;;;;5094971;28;887;-75
2022/01/24 11:54:24;;;;;;;;;;;;;;;;;;5076966;28;1979;-75
2022/01/24 11:56:51;;;;;;;;;;;;;;;;;;5095175;28;856;-72
2022/01/24 11:59:18;;;;;;;;;;;;;;;;;;5095568;28;909;-73
2022/01/24 12:01:45;;;;;;;;;;;;;;;;;;5094613;28;883;-76
2022/01/24 12:04:10;;;;;;;;;;;;;;;;;;5095292;28;821;-75
2022/01/24 12:06:55;;;;;;;;;;;;;;;;;;5095166;28;920;-75
2022/01/24 12:09:24;;;;;;;;;;;;;;;;;;5095535;28;851;-75
2022/01/24 12:11:50;;;;;;;;;;;;;;;;;;5076508;28;845;-75
2022/01/24 12:14:23;;;;;;;;;;;;;;;;;;5060915;28;1905;-74
2022/01/24 12:16:49;;;;;;;;;;;;;;;;;;5076752;28;1309;-75
2022/01/24 12:19:27;;;;;;;;;;;;;;;;;;5095942;28;877;-74
2022/01/24 12:21:53;;;;;;;;;;;;;;;;;;5093821;28;881;-75
2022/01/24 12:24:21;;;;;;;;;;;;;;;;;;5095553;28;916;-74
2022/01/24 12:26:48;;;;;;;;;;;;;;;;;;5094639;28;916;-75
2022/01/24 12:29:15;;;;;;;;;;;;;;;;;;5094435;28;1379;-75
2022/01/24 12:31:51;;;;;;;;;;;;;;;;;;5094504;28;815;-74
2022/01/24 12:34:24;;;;;;;;;;;;;;;;;;5094067;28;1961;-75
2022/01/24 12:36:52;;;;;;;;;;;;;;;;;;5094136;28;947;-74
2022/01/24 12:39:25;;;;;;;;;;;;;;;;;;5094319;28;820;-74
2022/01/24 12:41:56;;;;;;;;;;;;;;;;;;5093481;28;1758;-74
2022/01/24 12:47:11;;;;;;;;;;;;;;;;;;5093656;28;894;-75
2022/01/24 12:49:37;;;;;;;;;;;;;;;;;;5093992;28;932;-75
2022/01/24 12:52:03;;;;;;;;;;;;;;;;;;5093865;28;1046;-74
2022/01/24 12:54:33;;;;;;;;;;;;;;;;;;5094004;28;1890;-74
2022/01/24 12:56:59;;;;;;;;;;;;;;;;;;5093872;28;726;-74
2022/01/24 12:59:24;;;;;;;;;;;;;;;;;;5094416;28;849;-75
2022/01/24 13:01:52;;;;;;;;;;;;;;;;;;5093905;28;821;-74
2022/01/24 13:04:18;;;;;;;;;;;;;;;;;;5094232;28;852;-75
2022/01/24 13:06:46;;;;;;;;;;;;;;;;;;5094414;28;762;-75
2022/01/24 13:09:13;;;;;;;;;;;;;;;;;;5093666;28;829;-75
2022/01/24 13:11:45;;;;;;;;;;;;;;;;;;5093492;28;832;-74
2022/01/24 13:14:18;;;;;;;;;;;;;;;;;;5093637;28;1968;-75
2022/01/24 13:25:01;;;;;;;;;;;;;;;;;;5093076;28;909;-76
2022/01/24 13:27:42;;;;;;;;;;;;;;;;;;5093710;28;971;-74
2022/01/24 13:30:10;;;;;;;;;;;;;;;;;;5092422;28;895;-75
2022/01/24 13:33:01;;;;;;;;;;;;;;;;;;5091949;28;877;-75
2022/01/24 13:35:30;;;;;;;;;;;;;;;;;;5089789;28;1984;-74
2022/01/24 13:37:58;;;;;;;;;;;;;;;;;;5092979;28;824;-74
2022/01/24 13:40:59;;;;;;;;;;;;;;;;;;5093509;28;841;-75
2022/01/24 13:43:39;;;;;;;;;;;;;;;;;;5093656;28;864;-74
2022/01/24 13:46:10;;;;;;;;;;;;;;;;;;5075328;28;923;-74
2022/01/24 13:48:41;;;;;;;;;;;;;;;;;;5074838;28;1351;-75
2022/01/24 13:51:07;;;;;;;;;;;;;;;;;;5093464;28;818;-73
2022/01/24 13:53:34;;;;;;;;;;;;;;;;;;5093443;28;837;-74
2022/01/24 13:56:14;;;;;;;;;;;;;;;;;;5093491;28;1965;-73
2022/01/24 13:58:39;;;;;;;;;;;;;;;;;;5093112;28;858;-73
2022/01/24 14:01:04;;;;;;;;;;;;;;;;;;5093029;28;876;-73
2022/01/24 14:03:30;;;;;;;;;;;;;;;;;;5075060;28;888;-73
2022/01/24 14:06:12;;;;;;;;;;;;;;;;;;5092553;28;924;-74
2022/01/24 14:08:38;;;;;;;;;;;;;;;;;;5093583;28;889;-73
2022/01/24 14:11:12;;;;;;;;;;;;;;;;;;5092466;28;963;-73
2022/01/24 14:13:38;;;;;;;;;;;;;;;;;;5091505;28;1770;-73
2022/01/24 14:16:09;;;;;;;;;;;;;;;;;;5074692;28;1971;-73
2022/01/24 14:18:34;;;;;;;;;;;;;;;;;;5093192;28;826;-73
2022/01/24 14:21:10;;;;;;;;;;;;;;;;;;5092528;28;888;-75
2022/01/24 14:23:37;;;;;;;;;;;;;;;;;;5092756;28;836;-75
2022/01/24 14:26:19;;;;;;;;;;;;;;;;;;5092915;28;952;-74
2022/01/24 14:28:45;;;;;;;;;;;;;;;;;;5082926;28;1178;-73
2022/01/24 14:31:14;;;;;;;;;;;;;;;;;;5072744;28;1043;-71
2022/01/24 14:33:41;;;;;;;;;;;;;;;;;;5054749;28;837;-72
2022/01/24 14:36:11;;;;;;;;;;;;;;;;;;5072302;28;1963;-72
2022/01/24 14:38:38;;;;;;;;;;;;;;;;;;5072430;28;888;-72
2022/01/24 14:41:26;;;;;;;;;;;;;;;;;;5071733;28;934;-72
2022/01/24 14:46:40;;;;;;;;;;;;;;;;;;5072926;28;689;-71
2022/01/24 14:49:12;;;;;;;;;;;;;;;;;;5037183;28;1203;-75
2022/01/24 14:51:42;;;;;;;;;;;;;;;;;;5072622;28;856;-74
2022/01/24 14:54:11;;;;;;;;;;;;;;;;;;5071886;28;1945;-74
2022/01/24 14:56:38;;;;;;;;;;;;;;;;;;5072429;28;900;-74
2022/01/24 14:59:03;;;;;;;;;;;;;;;;;;5072072;28;785;-74
2022/01/24 15:01:29;;;;;;;;;;;;;;;;;;5072248;28;797;-73
2022/01/24 15:03:55;;;;;;;;;;;;;;;;;;5053552;28;860;-74
2022/01/24 15:06:21;;;;;;;;;;;;;;;;;;5072785;28;935;-74
2022/01/24 15:08:48;;;;;;;;;;;;;;;;;;5072450;28;877;-73
2022/01/24 15:11:16;;;;;;;;;;;;;;;;;;5072277;28;870;-74
2022/01/24 15:16:17;;;;;;;;;;;;;;;;;;5071424;28;718;-74
2022/01/24 15:26:48;;;;;;;;;;;;;;;;;;5052721;28;999;-74
2022/01/24 15:29:14;;;;;;;;;;;;;;;;;;5044497;28;1322;-74
2022/01/24 15:31:39;;;;;;;;;;;;;;;;;;5052726;28;782;-74
2022/01/24 15:34:04;;;;;;;;;;;;;;;;;;5052015;28;1919;-75
2022/01/24 15:36:29;;;;;;;;;;;;;;;;;;5052648;28;810;-74
2022/01/24 15:39:01;;;;;;;;;;;;;;;;;;5052050;28;904;-74
2022/01/24 15:41:26;;;;;;;;;;;;;;;;;;5052032;28;825;-73
2022/01/24 15:43:59;;;;;;;;;;;;;;;;;;5052175;28;887;-74
2022/01/24 15:49:05;;;;;;;;;;;;;;;;;;5052761;28;766;-74
2022/01/24 15:51:30;;;;;;;;;;;;;;;;;;5051815;28;933;-74
2022/01/24 15:53:56;;;;;;;;;;;;;;;;;;5052207;28;1956;-75
2022/01/24 15:58:49;;;;;;;;;;;;;;;;;;5055955;28;840;-75
2022/01/24 16:01:14;;;;;;;;;;;;;;;;;;5056749;28;1136;-74
2022/01/24 16:03:40;;;;;;;;;;;;;;;;;;5056018;28;896;-74
2022/01/24 16:06:05;;;;;;;;;;;;;;;;;;5055023;28;940;-75
2022/01/24 16:08:30;;;;;;;;;;;;;;;;;;5054613;28;927;-74
2022/01/24 16:10:56;;;;;;;;;;;;;;;;;;5039639;28;1188;-75
2022/01/24 16:13:22;;;;;;;;;;;;;;;;;;5054922;28;864;-74
2022/01/24 16:15:48;;;;;;;;;;;;;;;;;;5056234;28;1972;-74
2022/01/24 16:18:16;;;;;;;;;;;;;;;;;;5055446;28;849;-74
2022/01/24 16:23:30;;;;;;;;;;;;;;;;;;5054924;28;934;-74
2022/01/24 16:25:56;;;;;;;;;;;;;;;;;;5055068;28;1038;-73
2022/01/24 16:28:26;;;;;;;;;;;;;;;;;;5057288;28;1267;-74
2022/01/24 16:30:54;;;;;;;;;;;;;;;;;;5057375;28;1147;-74
2022/01/24 16:33:20;;;;;;;;;;;;;;;;;;5057678;28;1259;-74
2022/01/24 16:35:50;;;;;;;;;;;;;;;;;;5075048;28;1981;-74
2022/01/24 16:38:16;;;;;;;;;;;;;;;;;;5075497;28;916;-74
2022/01/24 16:40:49;;;;;;;;;;;;;;;;;;5075355;28;900;-74
2022/01/24 16:43:26;;;;;;;;;;;;;;;;;;5074692;28;681;-74
2022/01/24 16:48:29;;;;;;;;;;;;;;;;;;5075095;28;721;-74
2022/01/24 16:50:55;;;;;;;;;;;;;;;;;;5075397;28;899;-73
2022/01/24 16:53:20;;;;;;;;;;;;;;;;;;5056968;28;1298;-75
2022/01/24 16:55:47;;;;;;;;;;;;;;;;;;5074827;28;1898;-74
2022/01/24 16:58:12;;;;;;;;;;;;;;;;;;5074179;28;880;-74
2022/01/24 17:00:38;;;;;;;;;;;;;;;;;;5074170;28;848;-75
2022/01/24 17:03:04;;;;;;;;;;;;;;;;;;5074714;28;1003;-76
2022/01/24 17:05:29;;;;;;;;;;;;;;;;;;5056547;28;1003;-75
2022/01/24 17:07:55;;;;;;;;;;;;;;;;;;5074738;28;849;-76
2022/01/24 17:10:20;;;;;;;;;;;;;;;;;;5058508;28;2178;-74
2022/01/24 17:12:48;;;;;;;;;;;;;;;;;;5098124;28;2717;-75
2022/01/24 17:15:14;;;;;;;;;;;;;;;;;;5098379;28;2173;-74
2022/01/24 17:17:40;;;;;;;;;;;;;;;;;;5095034;28;834;-74
2022/01/24 17:20:05;;;;;;;;;;;;;;;;;;5094697;28;907;-74
2022/01/24 17:22:31;;;;;;;;;;;;;;;;;;5094585;28;911;-74
2022/01/24 17:24:56;;;;;;;;;;;;;;;;;;5094690;28;949;-74
2022/01/24 17:27:22;;;;;;;;;;;;;;;;;;5094901;28;869;-74
2022/01/24 17:29:48;;;;;;;;;;;;;;;;;;5094681;28;1122;-74
2022/01/24 17:32:13;;;;;;;;;;;;;;;;;;5094600;28;939;-74
2022/01/24 17:34:38;;;;;;;;;;;;;;;;;;5095322;28;1969;-74
2022/01/24 17:37:04;;;;;;;;;;;;;;;;;;5094892;28;809;-74
2022/01/24 17:39:30;;;;;;;;;;;;;;;;;;5094739;28;881;-74
2022/01/24 17:41:55;;;;;;;;;;;;;;;;;;5076452;28;940;-74
2022/01/24 17:44:20;;;;;;;;;;;;;;;;;;5094335;28;762;-74
2022/01/24 17:46:45;;;;;;;;;;;;;;;;;;5094165;28;928;-74
2022/01/24 17:49:11;;;;;;;;;;;;;;;;;;5094327;28;940;-74
2022/01/24 17:51:36;;;;;;;;;;;;;;;;;;5093857;28;885;-74
2022/01/24 17:54:02;;;;;;;;;;;;;;;;;;5093851;28;1911;-74
2022/01/24 17:56:28;;;;;;;;;;;;;;;;;;5059144;28;1187;-74
2022/01/24 17:58:54;;;;;;;;;;;;;;;;;;5094264;28;956;-74
2022/01/24 18:01:19;;;;;;;;;;;;;;;;;;5076882;28;1377;-74
2022/01/24 18:03:44;;;;;;;;;;;;;;;;;;5104684;28;917;-74
2022/01/24 18:06:11;;;;;;;;;;;;;;;;;;5093565;28;967;-74
2022/01/24 18:08:39;;;;;;;;;;;;;;;;;;5093797;28;899;-74
2022/01/24 18:11:09;;;;;;;;;;;;;;;;;;5093363;28;1024;-74
2022/01/24 18:13:35;;;;;;;;;;;;;;;;;;5093437;28;994;-74
2022/01/24 18:16:01;;;;;;;;;;;;;;;;;;5093434;28;1963;-74
2022/01/24 18:18:27;;;;;;;;;;;;;;;;;;5093619;28;882;-74
2022/01/24 18:20:52;;;;;;;;;;;;;;;;;;5103961;28;804;-73
2022/01/24 18:23:18;;;;;;;;;;;;;;;;;;5108530;28;955;-75
2022/01/24 18:25:43;;;;;;;;;;;;;;;;;;5092738;28;1110;-74
2022/01/24 18:28:08;;;;;;;;;;;;;;;;;;5111641;28;1156;-74
2022/01/24 18:30:33;;;;;;;;;;;;;;;;;;5110945;28;932;-74
2022/01/24 18:32:59;;;;;;;;;;;;;;;;;;5110636;28;983;-74
2022/01/24 18:35:24;;;;;;;;;;;;;;;;;;5110312;28;1953;-74
2022/01/24 18:37:50;;;;;;;;;;;;;;;;;;5110325;28;1042;-74
2022/01/24 18:40:15;;;;;;;;;;;;;;;;;;5102576;28;1114;-74
2022/01/24 18:42:41;;;;;;;;;;;;;;;;;;5099950;28;814;-75
2022/01/24 18:45:07;;;;;;;;;;;;;;;;;;5094888;28;911;-74
2022/01/24 18:47:33;;;;;;;;;;;;;;;;;;5099758;28;894;-74
2022/01/24 18:49:58;;;;;;;;;;;;;;;;;;5096828;28;821;-74
2022/01/24 18:52:24;;;;;;;;;;;;;;;;;;5084070;28;1419;-74
2022/01/24 18:54:49;;;;;;;;;;;;;;;;;;5097639;28;1979;-74
2022/01/24 18:57:15;;;;;;;;;;;;;;;;;;5076895;28;908;-74
2022/01/24 18:59:40;;;;;;;;;;;;;;;;;;5093213;28;2984;-75
2022/01/24 19:02:06;;;;;;;;;;;;;;;;;;5094851;28;951;-75
2022/01/24 19:04:32;;;;;;;;;;;;;;;;;;5095086;28;915;-74
2022/01/24 19:06:58;;;;;;;;;;;;;;;;;;5094686;28;841;-74
2022/01/24 19:09:24;;;;;;;;;;;;;;;;;;5095321;28;1224;-75
2022/01/24 19:11:49;;;;;;;;;;;;;;;;;;5096258;28;877;-73
2022/01/24 19:14:17;;;;;;;;;;;;;;;;;;5095549;28;1890;-74
2022/01/24 19:16:45;;;;;;;;;;;;;;;;;;5096175;28;822;-74
2022/01/24 19:19:29;;;;;;;;;;;;;;;;;;5094288;28;919;-74
2022/01/24 19:24:39;;;;;;;;;;;;;;;;;;5094522;28;3113;-74
2022/01/24 19:27:04;;;;;;;;;;;;;;;;;;5087826;28;3233;-75
2022/01/24 19:29:29;;;;;;;;;;;;;;;;;;5073149;28;1328;-74
2022/01/24 19:31:54;;;;;;;;;;;;;;;;;;5085735;28;3056;-75
2022/01/24 19:34:21;;;;;;;;;;;;;;;;;;5079165;28;1935;-73
2022/01/24 19:36:47;;;;;;;;;;;;;;;;;;5094327;28;3518;-73
2022/01/24 19:39:12;;;;;;;;;;;;;;;;;;5081727;28;2819;-74
2022/01/24 19:41:37;;;;;;;;;;;;;;;;;;5075876;28;2868;-75
2022/01/24 19:44:03;;;;;;;;;;;;;;;;;;5086340;28;1176;-74
2022/01/24 19:46:28;;;;;;;;;;;;;;;;;;5096751;28;774;-73